createdAt,value
2022-10-10T00:01:39.994Z,100.00
2022-10-10T00:16:41.486Z,100.00
2022-10-10T00:31:42.924Z,100.00
2022-10-10T00:46:44.433Z,100.00
2022-10-10T01:01:46.585Z,100.00
2022-10-10T01:16:51.023Z,100.00
2022-10-10T01:31:55.951Z,100.00
2022-10-10T01:46:58.071Z,100.00
2022-10-10T02:02:22.590Z,100.00
2022-10-10T02:17:25.713Z,100.00
2022-10-10T02:32:47.573Z,100.00
2022-10-10T02:47:49.143Z,100.00
2022-10-10T03:02:50.953Z,100.00
2022-10-10T03:17:52.582Z,100.00
2022-10-10T03:32:54.218Z,100.00
2022-10-10T03:47:55.730Z,100.00
2022-10-10T04:02:57.187Z,100.00
2022-10-10T04:17:59.069Z,100.00
2022-10-10T04:33:00.549Z,100.00
2022-10-10T04:48:02.045Z,100.00
2022-10-10T05:03:03.586Z,100.00
2022-10-10T05:18:05.034Z,86.17
2022-10-10T05:33:06.491Z,89.98
2022-10-10T05:48:07.940Z,91.42
2022-10-10T06:03:13.014Z,87.53
2022-10-10T06:18:14.453Z,85.49
2022-10-10T06:33:16.372Z,81.47
2022-10-10T06:48:17.848Z,81.83
2022-10-10T07:03:19.996Z,78.06
2022-10-10T07:18:21.917Z,71.66
2022-10-10T07:33:23.393Z,74.58
2022-10-10T07:48:24.971Z,75.86
2022-10-10T08:03:26.452Z,77.25
2022-10-10T08:18:27.928Z,68.67
2022-10-10T08:33:29.442Z,68.03
2022-10-10T08:48:31.387Z,59.06
2022-10-10T09:03:32.837Z,57.66
2022-10-10T09:18:52.766Z,59.88
2022-10-10T09:34:14.505Z,57.10
2022-10-10T09:49:17.748Z,55.25
2022-10-10T10:04:28.833Z,57.89
2022-10-10T10:19:35.702Z,57.18
2022-10-10T10:34:37.250Z,57.02
2022-10-10T10:49:48.727Z,57.15
2022-10-10T11:05:22.508Z,58.30
2022-10-10T11:20:24.934Z,55.26
2022-10-10T11:35:26.388Z,57.07
2022-10-10T11:50:29.068Z,57.21
2022-10-10T12:05:31.243Z,57.21
2022-10-10T12:20:34.289Z,55.78
2022-10-10T12:35:35.834Z,53.99
2022-10-10T12:50:40.172Z,53.69
2022-10-10T13:05:41.857Z,56.34
2022-10-10T13:20:43.364Z,56.28
2022-10-10T13:35:46.099Z,56.29
2022-10-10T13:50:53.848Z,54.76
2022-10-10T14:05:55.581Z,55.55
2022-10-10T14:20:57.056Z,55.55
2022-10-10T14:35:59.560Z,55.65
2022-10-10T14:51:01.477Z,56.04
2022-10-10T15:06:22.528Z,58.17
2022-10-10T15:21:24.025Z,59.48
2022-10-10T15:36:25.676Z,61.99
2022-10-10T15:51:28.118Z,64.37
2022-10-10T16:06:29.639Z,67.24
2022-10-10T16:21:33.506Z,70.05
2022-10-10T16:36:36.961Z,71.64
2022-10-10T16:51:38.412Z,70.10
2022-10-10T17:06:40.062Z,67.93
2022-10-10T17:21:41.569Z,66.87
2022-10-10T17:36:43.104Z,66.58
2022-10-10T17:51:44.640Z,64.77
2022-10-10T18:06:46.153Z,63.94
2022-10-10T18:21:49.036Z,65.36
2022-10-10T18:36:50.732Z,65.24
2022-10-10T18:51:52.242Z,67.49
2022-10-10T19:06:57.671Z,67.20
2022-10-10T19:21:59.501Z,67.02
2022-10-10T19:37:00.958Z,70.32
2022-10-10T19:52:02.424Z,73.83
2022-10-10T20:07:03.939Z,72.48
2022-10-10T20:22:05.572Z,72.43
2022-10-10T20:37:07.132Z,77.34
2022-10-10T20:52:08.725Z,79.88
2022-10-10T21:07:10.167Z,80.60
2022-10-10T21:22:11.603Z,79.28
2022-10-10T21:37:13.080Z,79.85
2022-10-10T21:52:14.572Z,82.32
2022-10-10T22:16:08.445Z,90.24
2022-10-10T22:31:11.506Z,90.58
2022-10-10T22:46:13.053Z,78.80
2022-10-10T23:01:16.171Z,82.12
2022-10-10T23:16:17.785Z,84.35
2022-10-10T23:31:19.254Z,86.05
2022-10-10T23:46:20.728Z,91.82
